createdAt,value
2023-05-03T00:02:19.394Z,100887.59
2023-05-03T00:05:06.112Z,100888.06
2023-05-03T00:07:52.923Z,100879.22
2023-05-03T00:10:36.818Z,100884.78
2023-05-03T00:13:20.629Z,100890.72
2023-05-03T00:16:04.804Z,100871.22
2023-05-03T00:18:49.440Z,100867.56
2023-05-03T00:21:33.358Z,100881.19
2023-05-03T00:24:18.906Z,100873.66
2023-05-03T00:27:02.851Z,100873.25
2023-05-03T00:29:47.038Z,100874.97
2023-05-03T00:32:30.744Z,100865.72
2023-05-03T00:35:14.474Z,100866.78
2023-05-03T00:37:58.366Z,100859.03
2023-05-03T00:40:43.607Z,100859.38
2023-05-03T00:43:27.696Z,100864.38
2023-05-03T00:46:17.269Z,100866.44
2023-05-03T00:49:02.357Z,100849.97
2023-05-03T00:51:46.345Z,100863.34
2023-05-03T00:54:33.129Z,100838.78
2023-05-03T00:57:18.607Z,100832.00
2023-05-03T01:00:04.183Z,100834.41
2023-05-03T01:02:50.515Z,100851.94
2023-05-03T01:05:43.639Z,100843.00
2023-05-03T01:08:33.102Z,100813.00
2023-05-03T01:11:24.064Z,100844.56
2023-05-03T01:14:17.782Z,100842.00
2023-05-03T01:17:08.808Z,100843.78
2023-05-03T01:19:56.454Z,100850.41
2023-05-03T01:22:47.134Z,100841.28
2023-05-03T01:25:32.955Z,100845.28
2023-05-03T01:28:16.748Z,100843.78
2023-05-03T01:31:01.214Z,100850.13
2023-05-03T01:33:55.058Z,100796.06
2023-05-03T01:36:40.356Z,100850.94
2023-05-03T01:39:27.376Z,100859.63
2023-05-03T01:42:13.566Z,100842.00
2023-05-03T01:44:58.062Z,100834.66
2023-05-03T01:47:42.029Z,100852.66
2023-05-03T01:50:25.931Z,100849.22
2023-05-03T01:53:09.771Z,100849.22
2023-05-03T01:55:53.498Z,100856.88
2023-05-03T01:58:38.728Z,100840.88
2023-05-03T02:01:22.493Z,100836.91
2023-05-03T02:04:06.857Z,100841.16
2023-05-03T02:06:50.893Z,100842.88
2023-05-03T02:09:35.380Z,100841.34
2023-05-03T02:12:19.306Z,100848.03
2023-05-03T02:15:05.579Z,100846.28
2023-05-03T02:17:51.004Z,100852.91
2023-05-03T02:20:37.847Z,100847.38
2023-05-03T02:23:21.874Z,100845.91
2023-05-03T02:26:06.635Z,100842.59
2023-05-03T02:28:50.714Z,100837.81
2023-05-03T02:31:35.999Z,100831.56
2023-05-03T02:34:20.936Z,100848.88
2023-05-03T02:37:05.464Z,100848.09
2023-05-03T02:39:51.106Z,100859.94
2023-05-03T02:42:34.977Z,100858.28
2023-05-03T02:45:19.014Z,100850.50
2023-05-03T02:48:04.239Z,100839.53
2023-05-03T02:50:48.469Z,100848.28
2023-05-03T02:53:32.319Z,100855.63
2023-05-03T02:56:19.657Z,100856.38
2023-05-03T02:59:03.759Z,100865.72
2023-05-03T03:01:48.085Z,100868.81
2023-05-03T03:04:34.438Z,100867.13
2023-05-03T03:07:18.336Z,100860.25
2023-05-03T03:10:02.386Z,100859.66
2023-05-03T03:12:48.465Z,100863.16
2023-05-03T03:15:41.365Z,100851.09
2023-05-03T03:18:25.250Z,100867.19
2023-05-03T03:21:10.547Z,100866.00
2023-05-03T03:23:54.640Z,100868.25
2023-05-03T03:26:38.556Z,100863.88
2023-05-03T03:29:22.471Z,100828.88
2023-05-03T03:32:07.744Z,100864.53
2023-05-03T03:34:52.032Z,100852.06
2023-05-03T03:37:38.984Z,100873.25
2023-05-03T03:40:23.865Z,100882.13
2023-05-03T03:43:10.385Z,100883.44
2023-05-03T03:45:55.246Z,100887.50
2023-05-03T03:48:39.729Z,100878.16
2023-05-03T03:51:23.889Z,100891.47
2023-05-03T03:54:09.219Z,100885.81
2023-05-03T03:56:58.183Z,100878.97
2023-05-03T03:59:41.999Z,100878.16
2023-05-03T04:02:26.353Z,100887.13
2023-05-03T04:05:11.151Z,100880.63
2023-05-03T04:07:55.108Z,100884.19
2023-05-03T04:10:40.295Z,100884.81
2023-05-03T04:13:24.623Z,100879.19
2023-05-03T04:16:11.577Z,100889.31
2023-05-03T04:18:56.154Z,100886.88
2023-05-03T04:21:40.062Z,100891.75
2023-05-03T04:24:24.482Z,100866.88
2023-05-03T04:27:09.827Z,100890.59
2023-05-03T04:29:56.062Z,100889.63
2023-05-03T04:32:40.773Z,100884.03
2023-05-03T04:35:28.882Z,100894.66
2023-05-03T04:38:14.820Z,100891.84
2023-05-03T04:40:58.833Z,100887.34
2023-05-03T04:43:44.760Z,100900.97
2023-05-03T04:46:29.531Z,100887.91
2023-05-03T04:49:13.608Z,100889.78
2023-05-03T04:51:57.434Z,100897.56
2023-05-03T04:54:42.549Z,100892.59
2023-05-03T04:57:26.465Z,100903.81
2023-05-03T05:00:13.486Z,100890.00
2023-05-03T05:03:02.512Z,100898.38
2023-05-03T05:05:48.316Z,100910.25
2023-05-03T05:08:32.309Z,100923.16
2023-05-03T05:11:16.822Z,100925.38
2023-05-03T05:14:01.915Z,100924.81
2023-05-03T05:16:47.446Z,100906.81
2023-05-03T05:19:31.965Z,100933.16
2023-05-03T05:22:15.803Z,100932.03
2023-05-03T05:25:05.940Z,100918.25
2023-05-03T05:27:50.353Z,100938.69
2023-05-03T05:30:35.197Z,100943.41
2023-05-03T05:33:21.079Z,100934.94
2023-05-03T05:36:07.406Z,100893.22
2023-05-03T05:38:51.663Z,100932.22
2023-05-03T05:41:35.519Z,100937.16
2023-05-03T05:44:19.407Z,100935.28
2023-05-03T05:47:08.144Z,100943.50
2023-05-03T05:49:54.813Z,100920.13
2023-05-03T05:52:39.064Z,100926.94
2023-05-03T05:55:24.122Z,100907.59
2023-05-03T05:58:09.924Z,100922.75
2023-05-03T06:01:01.458Z,100925.78
2023-05-03T06:03:47.640Z,100925.13
2023-05-03T06:06:33.350Z,100929.91
2023-05-03T06:12:08.235Z,100910.25
2023-05-03T06:15:02.389Z,100957.47
2023-05-03T06:17:51.871Z,100969.94
2023-05-03T06:20:35.978Z,100936.28
2023-05-03T06:23:21.863Z,100936.03
2023-05-03T06:26:09.545Z,100947.91
2023-05-03T06:28:53.741Z,100952.72
2023-05-03T06:31:41.974Z,100941.25
2023-05-03T06:34:27.602Z,100948.22
2023-05-03T06:37:12.920Z,100928.13
2023-05-03T06:39:58.520Z,100958.31
2023-05-03T06:42:42.513Z,100890.81
2023-05-03T06:45:30.177Z,100926.88
2023-05-03T06:48:15.695Z,100955.06
2023-05-03T06:51:01.550Z,100947.91
2023-05-03T06:53:46.330Z,100915.78
2023-05-03T06:56:31.840Z,100899.16
2023-05-03T06:59:15.793Z,100933.94
2023-05-03T07:02:00.084Z,100915.16
2023-05-03T07:04:44.124Z,100954.53
2023-05-03T07:07:28.290Z,100943.66
2023-05-03T07:10:12.372Z,100957.75
2023-05-03T07:12:58.042Z,100959.66
2023-05-03T07:15:42.071Z,100964.81
2023-05-03T07:18:25.853Z,100944.19
2023-05-03T07:21:09.754Z,100943.59
2023-05-03T07:23:53.687Z,100965.94
2023-05-03T07:26:37.524Z,100953.47
2023-05-03T07:29:23.107Z,100963.97
2023-05-03T07:32:07.385Z,100970.00
2023-05-03T07:34:51.364Z,100968.25
2023-05-03T07:37:35.768Z,100976.41
2023-05-03T07:40:20.144Z,100985.72
2023-05-03T07:43:04.419Z,100960.28
2023-05-03T07:45:49.672Z,100984.03
2023-05-03T07:48:33.578Z,100984.06
2023-05-03T07:51:17.554Z,100969.97
2023-05-03T07:54:01.726Z,100990.75
2023-05-03T07:56:45.694Z,100989.78
2023-05-03T07:59:29.732Z,101014.28
2023-05-03T08:02:15.068Z,101028.06
2023-05-03T08:04:59.279Z,101049.78
2023-05-03T08:07:43.398Z,101044.44
2023-05-03T08:10:27.255Z,101031.56
2023-05-03T08:13:11.698Z,101037.78
2023-05-03T08:15:56.166Z,101047.34
2023-05-03T08:18:41.513Z,101046.81
2023-05-03T08:21:26.282Z,101043.72
2023-05-03T08:24:10.843Z,101042.09
2023-05-03T08:26:57.012Z,101038.63
2023-05-03T08:29:40.997Z,101037.53
2023-05-03T08:32:25.197Z,101038.44
2023-05-03T08:35:13.906Z,101035.97
2023-05-03T08:37:57.963Z,101043.50
2023-05-03T08:40:41.908Z,101043.59
2023-05-03T08:43:29.651Z,101045.31
2023-05-03T08:46:13.598Z,101064.69
2023-05-03T08:48:57.707Z,101061.22
2023-05-03T08:51:47.302Z,101048.84
2023-05-03T08:54:31.421Z,101033.63
2023-05-03T08:57:16.730Z,101031.06
2023-05-03T09:00:02.366Z,101063.03
2023-05-03T09:02:51.870Z,101052.28
2023-05-03T09:05:39.230Z,101050.56
2023-05-03T09:08:24.906Z,101058.34
2023-05-03T09:11:23.187Z,101036.06
2023-05-03T09:14:12.366Z,101030.84
2023-05-03T09:16:56.587Z,100994.44
2023-05-03T09:19:52.791Z,100985.59
2023-05-03T09:22:37.778Z,100982.59
2023-05-03T09:25:23.191Z,100995.69
2023-05-03T09:28:07.268Z,100999.34
2023-05-03T09:31:04.955Z,101017.81
2023-05-03T09:33:49.060Z,100992.50
2023-05-03T09:36:47.857Z,100982.81
2023-05-03T09:39:32.423Z,101013.59
2023-05-03T09:42:19.670Z,101018.44
2023-05-03T09:45:04.128Z,101004.34
2023-05-03T09:47:54.200Z,101005.19
2023-05-03T09:50:38.936Z,100998.47
2023-05-03T09:53:23.990Z,100968.63
2023-05-03T09:56:12.698Z,100992.97
2023-05-03T09:58:59.151Z,100998.53
2023-05-03T10:01:43.388Z,100962.31
2023-05-03T10:04:29.345Z,100988.94
2023-05-03T10:07:16.005Z,100966.84
2023-05-03T10:10:00.168Z,100972.44
2023-05-03T10:12:45.281Z,100942.91
2023-05-03T10:15:32.567Z,100935.66
2023-05-03T10:18:18.274Z,100956.41
2023-05-03T10:21:07.137Z,100971.81
2023-05-03T10:24:13.174Z,100959.34
2023-05-03T10:26:57.986Z,100915.78
2023-05-03T10:30:04.232Z,100962.38
2023-05-03T10:32:50.851Z,100965.75
2023-05-03T10:35:34.963Z,100948.75
2023-05-03T10:38:21.835Z,100956.66
2023-05-03T10:41:07.315Z,100932.06
2023-05-03T10:43:51.421Z,100936.56
2023-05-03T10:46:36.654Z,100967.97
2023-05-03T10:49:23.310Z,100965.94
2023-05-03T10:52:50.000Z,100960.22
2023-05-03T10:55:34.779Z,100955.34
2023-05-03T10:58:19.138Z,100939.41
2023-05-03T11:01:04.712Z,100964.66
2023-05-03T11:03:53.535Z,100927.53
2023-05-03T11:06:41.563Z,100955.22
2023-05-03T11:09:33.257Z,100946.31
2023-05-03T11:12:17.476Z,100906.56
2023-05-03T11:15:01.943Z,100940.94
2023-05-03T11:17:47.583Z,100877.47
2023-05-03T11:20:31.752Z,100947.28
2023-05-03T11:23:17.191Z,100918.91
2023-05-03T11:26:01.076Z,100881.84
2023-05-03T11:28:45.952Z,100940.47
2023-05-03T11:31:30.117Z,100924.09
2023-05-03T11:34:15.845Z,100921.59
2023-05-03T11:36:59.892Z,100929.31
2023-05-03T11:39:45.166Z,100930.84
2023-05-03T11:42:29.290Z,100939.75
2023-05-03T11:45:13.472Z,100934.69
2023-05-03T11:47:58.300Z,100929.91
2023-05-03T11:50:46.769Z,100937.41
2023-05-03T11:53:31.055Z,100945.59
2023-05-03T11:56:18.887Z,100941.31
2023-05-03T11:59:03.261Z,100928.63
2023-05-03T12:01:49.540Z,100929.00
2023-05-03T12:04:33.826Z,100914.53
2023-05-03T12:07:19.960Z,100901.00
2023-05-03T12:10:20.850Z,100891.59
2023-05-03T12:13:08.757Z,100894.69
2023-05-03T12:16:11.074Z,100897.22
2023-05-03T12:18:59.702Z,100906.34
2023-05-03T12:22:02.921Z,100912.84
2023-05-03T12:24:53.607Z,100923.69
2023-05-03T12:27:39.768Z,100927.03
2023-05-03T12:30:27.485Z,100913.00
2023-05-03T12:33:15.330Z,100919.78
2023-05-03T12:35:59.841Z,100919.94
2023-05-03T12:38:43.946Z,100912.56
2023-05-03T12:44:17.484Z,100925.38
2023-05-03T12:47:03.402Z,100923.78
2023-05-03T12:49:51.144Z,100920.59
2023-05-03T12:52:38.641Z,100911.53
2023-05-03T12:55:25.446Z,100894.16
2023-05-03T13:03:57.798Z,100886.13
2023-05-03T13:06:54.694Z,100894.16
2023-05-03T13:12:47.765Z,100882.97
2023-05-03T13:15:31.617Z,100875.72
2023-05-03T13:18:15.496Z,100876.56
2023-05-03T13:21:00.653Z,100873.88
2023-05-03T13:26:45.805Z,100822.19
2023-05-03T13:29:29.539Z,100833.00
2023-05-03T13:32:13.654Z,100826.03
2023-05-03T13:34:57.544Z,100831.53
2023-05-03T13:37:42.981Z,100841.47
2023-05-03T13:40:27.069Z,100835.16
2023-05-03T13:43:11.396Z,100846.66
2023-05-03T13:46:01.763Z,100824.41
2023-05-03T13:48:45.905Z,100841.16
2023-05-03T13:51:30.101Z,100831.59
2023-05-03T13:54:15.678Z,100825.25
2023-05-03T13:56:59.600Z,100811.69
2023-05-03T13:59:43.635Z,100817.06
2023-05-03T14:02:27.781Z,100822.25
2023-05-03T14:05:12.085Z,100826.50
2023-05-03T14:07:56.966Z,100827.34
2023-05-03T14:10:42.909Z,100793.56
2023-05-03T14:13:27.331Z,100829.22
2023-05-03T14:16:27.578Z,100821.31
2023-05-03T14:19:20.217Z,100834.56
2023-05-03T14:22:04.606Z,100819.94
2023-05-03T14:24:48.847Z,100795.31
2023-05-03T14:27:34.340Z,100812.00
2023-05-03T14:30:18.511Z,100824.69
2023-05-03T14:33:02.701Z,100821.69
2023-05-03T14:35:46.917Z,100790.03
2023-05-03T14:38:31.070Z,100814.88
2023-05-03T14:41:15.095Z,100830.44
2023-05-03T14:44:00.508Z,100833.84
2023-05-03T14:46:44.533Z,100841.28
2023-05-03T14:49:28.548Z,100840.28
2023-05-03T14:52:12.448Z,100846.75
2023-05-03T14:54:56.698Z,100833.44
2023-05-03T14:57:40.725Z,100834.00
2023-05-03T15:00:28.411Z,100825.03
2023-05-03T15:03:13.174Z,100812.91
2023-05-03T15:05:57.203Z,100815.59
2023-05-03T15:08:41.514Z,100815.25
2023-05-03T15:11:25.659Z,100812.50
2023-05-03T15:14:09.523Z,100829.25
2023-05-03T15:16:55.259Z,100845.47
2023-05-03T15:19:39.193Z,100864.38
2023-05-03T15:22:23.411Z,100859.69
2023-05-03T15:25:08.453Z,100848.31
2023-05-03T15:27:52.792Z,100834.00
2023-05-03T15:30:36.943Z,100837.34
2023-05-03T15:33:22.471Z,100818.91
2023-05-03T15:36:09.326Z,100823.13
2023-05-03T15:38:53.447Z,100814.56
2023-05-03T15:41:37.498Z,100808.41
2023-05-03T15:44:24.305Z,100802.22
2023-05-03T15:47:08.453Z,100806.13
2023-05-03T15:49:54.401Z,100763.06
2023-05-03T15:52:38.608Z,100793.25
2023-05-03T15:55:22.697Z,100780.53
2023-05-03T15:58:07.702Z,100770.78
2023-05-03T16:00:52.515Z,100759.84
2023-05-03T16:03:36.544Z,100777.06
2023-05-03T16:06:22.286Z,100764.78
2023-05-03T16:09:08.515Z,100755.84
2023-05-03T16:11:52.828Z,100765.44
2023-05-03T16:14:36.945Z,100760.03
2023-05-03T16:17:22.263Z,100761.28
2023-05-03T16:20:08.372Z,100768.00
2023-05-03T16:22:53.944Z,100735.94
2023-05-03T16:25:38.319Z,100756.03
2023-05-03T16:28:22.415Z,100723.81
2023-05-03T16:31:06.578Z,100758.13
2023-05-03T16:33:50.605Z,100752.38
2023-05-03T16:36:34.748Z,100752.75
2023-05-03T16:39:20.338Z,100740.44
2023-05-03T16:42:04.325Z,100744.34
2023-05-03T16:44:48.501Z,100750.69
2023-05-03T16:47:35.223Z,100737.00
2023-05-03T16:50:19.365Z,100742.59
2023-05-03T16:53:05.401Z,100750.75
2023-05-03T16:55:51.440Z,100749.13
2023-05-03T16:58:35.859Z,100690.75
2023-05-03T17:01:23.123Z,100733.63
2023-05-03T17:04:07.748Z,100717.69
2023-05-03T17:09:37.323Z,100722.94
2023-05-03T17:12:22.850Z,100733.44
2023-05-03T17:15:08.398Z,100716.03
2023-05-03T17:17:55.277Z,100695.50
2023-05-03T17:20:39.530Z,100704.81
2023-05-03T17:23:23.713Z,100681.09
2023-05-03T17:26:09.762Z,100684.16
2023-05-03T17:29:02.548Z,100690.16
2023-05-03T17:31:48.919Z,100705.22
2023-05-03T17:34:36.160Z,100690.25
2023-05-03T17:37:20.284Z,100672.22
2023-05-03T17:40:05.494Z,100716.59
2023-05-03T17:42:49.630Z,100714.25
2023-05-03T17:45:35.021Z,100726.63
2023-05-03T17:48:20.875Z,100630.00
2023-05-03T17:51:04.982Z,100716.63
2023-05-03T17:53:49.273Z,100723.38
2023-05-03T17:56:35.525Z,100738.22
2023-05-03T17:59:19.806Z,100726.75
2023-05-03T18:02:08.358Z,100748.53
2023-05-03T18:04:52.493Z,100756.50
2023-05-03T18:07:38.437Z,100764.38
2023-05-03T18:10:30.398Z,100765.91
2023-05-03T18:13:15.862Z,100778.59
2023-05-03T18:16:00.534Z,100789.94
2023-05-03T18:18:47.917Z,100783.69
2023-05-03T18:21:31.999Z,100778.38
2023-05-03T18:24:19.767Z,100778.47
2023-05-03T18:27:06.837Z,100769.00
2023-05-03T18:29:51.248Z,100777.31
2023-05-03T18:32:37.716Z,100766.41
2023-05-03T18:35:24.900Z,100784.97
2023-05-03T18:38:10.276Z,100790.06
2023-05-03T18:40:58.131Z,100803.47
2023-05-03T18:43:44.833Z,100803.31
2023-05-03T18:46:30.344Z,100784.34
2023-05-03T18:49:15.662Z,100787.47
2023-05-03T18:52:01.557Z,100789.28
2023-05-03T18:54:45.796Z,100793.47
2023-05-03T18:57:31.945Z,100804.25
2023-05-03T19:00:30.087Z,100816.94
2023-05-03T19:03:14.245Z,100811.88
2023-05-03T19:06:02.894Z,100813.16
2023-05-03T19:08:53.723Z,100807.59
2023-05-03T19:11:37.950Z,100814.63
2023-05-03T19:14:22.328Z,100813.19
2023-05-03T19:17:15.376Z,100799.63
2023-05-03T19:20:05.408Z,100786.16
2023-05-03T19:22:50.274Z,100788.88
2023-05-03T19:25:39.248Z,100763.84
2023-05-03T19:28:26.422Z,100769.56
2023-05-03T19:31:12.809Z,100769.78
2023-05-03T19:33:57.153Z,100766.28
2023-05-03T19:36:46.176Z,100777.53
2023-05-03T19:39:36.908Z,100774.09
2023-05-03T19:42:22.486Z,100781.91
2023-05-03T19:45:11.363Z,100805.59
2023-05-03T19:47:55.830Z,100791.88
2023-05-03T19:50:40.176Z,100807.56
2023-05-03T19:53:24.320Z,100813.53
2023-05-03T19:56:09.805Z,100798.47
2023-05-03T19:58:55.753Z,100807.00
2023-05-03T20:01:40.025Z,100785.69
2023-05-03T20:04:28.817Z,100797.44
2023-05-03T20:07:12.962Z,100800.25
2023-05-03T20:09:57.238Z,100797.88
2023-05-03T20:12:41.378Z,100799.47
2023-05-03T20:15:35.144Z,100750.00
2023-05-03T20:18:19.371Z,100788.34
2023-05-03T20:21:03.962Z,100791.16
2023-05-03T20:23:52.495Z,100739.06
2023-05-03T20:26:44.609Z,100788.53
2023-05-03T20:29:28.831Z,100789.84
2023-05-03T20:32:14.404Z,100805.91
2023-05-03T20:35:02.490Z,100798.53
2023-05-03T20:37:47.620Z,100813.25
2023-05-03T20:40:35.838Z,100832.13
2023-05-03T20:43:22.790Z,100823.06
2023-05-03T20:46:12.446Z,100814.13
2023-05-03T20:48:58.940Z,100826.31
2023-05-03T20:51:43.073Z,100824.34
2023-05-03T20:54:32.946Z,100837.06
2023-05-03T20:57:20.202Z,100814.47
2023-05-03T21:00:04.889Z,100820.81
2023-05-03T21:02:56.651Z,100800.00
2023-05-03T21:05:42.175Z,100811.78
2023-05-03T21:08:29.115Z,100820.72
2023-05-03T21:11:20.510Z,100804.19
2023-05-03T21:14:04.566Z,100786.72
2023-05-03T21:16:51.397Z,100790.63
2023-05-03T21:19:35.651Z,100791.38
2023-05-03T21:22:30.061Z,100789.69
2023-05-03T21:25:14.512Z,100790.88
2023-05-03T21:27:58.717Z,100803.41
2023-05-03T21:30:45.974Z,100806.69
2023-05-03T21:33:32.538Z,100816.34
2023-05-03T21:36:17.309Z,100800.94
2023-05-03T21:39:05.799Z,100821.34
2023-05-03T21:41:49.899Z,100814.47
2023-05-03T21:44:35.091Z,100806.81
2023-05-03T21:47:21.654Z,100812.63
2023-05-03T21:50:07.155Z,100818.84
2023-05-03T21:52:54.240Z,100815.75
2023-05-03T21:55:40.056Z,100812.28
2023-05-03T21:58:24.246Z,100818.31
2023-05-03T22:01:11.114Z,100808.25
2023-05-03T22:03:55.524Z,100794.09
2023-05-03T22:06:39.676Z,100802.91
2023-05-03T22:09:28.422Z,100814.78
2023-05-03T22:12:23.524Z,100799.66
2023-05-03T22:15:09.558Z,100787.97
2023-05-03T22:17:53.681Z,100794.09
2023-05-03T22:20:37.885Z,100780.00
2023-05-03T22:23:21.896Z,100788.88
2023-05-03T22:26:05.987Z,100770.41
2023-05-03T22:28:51.467Z,100763.09
2023-05-03T22:31:35.447Z,100740.50
2023-05-03T22:34:19.710Z,100732.44
2023-05-03T22:37:03.720Z,100757.09
2023-05-03T22:39:47.725Z,100787.06
2023-05-03T22:42:31.780Z,100784.63
2023-05-03T22:45:17.163Z,100784.44
2023-05-03T22:48:01.203Z,100789.16
2023-05-03T22:50:45.564Z,100768.97
2023-05-03T22:53:29.491Z,100823.44
2023-05-03T22:56:13.550Z,100831.31
2023-05-03T22:58:57.312Z,100838.16
2023-05-03T23:01:44.173Z,100821.97
2023-05-03T23:04:28.040Z,100842.91
2023-05-03T23:07:11.860Z,100863.88
2023-05-03T23:10:02.961Z,100857.56
2023-05-03T23:12:50.224Z,100845.50
2023-05-03T23:15:34.427Z,100815.81
2023-05-03T23:18:19.810Z,100855.28
2023-05-03T23:21:04.448Z,100757.47
2023-05-03T23:23:48.167Z,100832.19
2023-05-03T23:26:32.052Z,100811.66
2023-05-03T23:29:16.737Z,100801.22
2023-05-03T23:32:01.075Z,100784.22
2023-05-03T23:34:46.616Z,100803.06
2023-05-03T23:37:30.634Z,100789.53
2023-05-03T23:40:14.572Z,100771.81
2023-05-03T23:42:58.421Z,100740.03
2023-05-03T23:45:42.415Z,100755.81
2023-05-03T23:48:26.178Z,100731.84
2023-05-03T23:51:11.444Z,100708.63
2023-05-03T23:53:55.250Z,100713.66
2023-05-03T23:56:39.208Z,100702.50
2023-05-03T23:59:22.948Z,100666.59
